createdAt,value
2023-03-06T00:00:21.761Z,99872.95
2023-03-06T00:03:09.796Z,99871.42
2023-03-06T00:05:37.927Z,99870.18
2023-03-06T00:08:06.392Z,99871.63
2023-03-06T00:10:34.453Z,99875.35
2023-03-06T00:13:07.189Z,99878.45
2023-03-06T00:15:35.212Z,99877.23
2023-03-06T00:18:04.443Z,99876.95
2023-03-06T00:20:33.152Z,99874.48
2023-03-06T00:23:01.253Z,99879.32
2023-03-06T00:25:29.344Z,99884.52
2023-03-06T00:27:57.442Z,99886.45
2023-03-06T00:30:25.660Z,99884.85
2023-03-06T00:32:53.958Z,99884.61
2023-03-06T00:35:22.317Z,99885.50
2023-03-06T00:37:50.430Z,99885.22
2023-03-06T00:40:19.666Z,99886.56
2023-03-06T00:42:48.363Z,99888.02
2023-03-06T00:45:16.499Z,99892.05
2023-03-06T00:47:44.559Z,99893.34
2023-03-06T00:50:12.576Z,99888.92
2023-03-06T00:52:42.215Z,99885.20
2023-03-06T00:55:10.573Z,99888.19
2023-03-06T00:57:38.556Z,99889.86
2023-03-06T01:00:07.066Z,99885.59
2023-03-06T01:02:35.382Z,99878.27
2023-03-06T01:05:03.755Z,99878.23
2023-03-06T01:07:34.246Z,99877.44
2023-03-06T01:10:02.911Z,99876.06
2023-03-06T01:12:30.908Z,99875.12
2023-03-06T01:14:58.959Z,99876.20
2023-03-06T01:17:27.054Z,99877.65
2023-03-06T01:19:54.986Z,99879.21
2023-03-06T01:22:23.015Z,99877.85
2023-03-06T01:24:51.044Z,99878.17
2023-03-06T01:27:18.996Z,99875.07
2023-03-06T01:29:47.237Z,99873.21
2023-03-06T01:32:15.150Z,99869.20
2023-03-06T01:34:43.177Z,99871.48
2023-03-06T01:37:11.230Z,99874.96
2023-03-06T01:39:39.214Z,99875.88
2023-03-06T01:42:07.568Z,99877.91
2023-03-06T01:44:35.606Z,99879.48
2023-03-06T01:47:03.685Z,99880.73
2023-03-06T01:49:34.341Z,99877.59
2023-03-06T01:52:04.298Z,99874.77
2023-03-06T01:54:40.268Z,99874.14
2023-03-06T01:57:19.261Z,99874.96
2023-03-06T01:59:51.686Z,99874.08
2023-03-06T02:02:20.153Z,99876.91
2023-03-06T02:04:48.685Z,99872.38
2023-03-06T02:07:19.049Z,99873.14
2023-03-06T02:09:47.192Z,99872.48
2023-03-06T02:12:19.239Z,99872.88
2023-03-06T02:14:47.851Z,99874.12
2023-03-06T02:17:18.408Z,99873.02
2023-03-06T02:19:49.451Z,99871.13
2023-03-06T02:22:21.050Z,99874.08
2023-03-06T02:24:58.463Z,99877.31
2023-03-06T02:27:27.246Z,99878.05
2023-03-06T02:29:56.120Z,99881.15
2023-03-06T02:32:24.327Z,99878.67
2023-03-06T02:34:54.523Z,99879.34
2023-03-06T02:37:24.043Z,99884.13
2023-03-06T02:39:54.996Z,99881.17
2023-03-06T02:42:25.108Z,99880.63
2023-03-06T02:44:55.842Z,99885.41
2023-03-06T02:47:23.927Z,99884.38
2023-03-06T02:49:52.433Z,99884.05
2023-03-06T02:52:20.440Z,99886.45
2023-03-06T02:54:48.340Z,99882.46
2023-03-06T02:57:16.988Z,99887.45
2023-03-06T02:59:46.138Z,99890.80
2023-03-06T03:02:14.204Z,99892.30
2023-03-06T03:04:42.317Z,99893.30
2023-03-06T03:07:10.561Z,99895.91
2023-03-06T03:09:39.763Z,99892.16
2023-03-06T03:12:08.437Z,99894.52
2023-03-06T03:14:36.734Z,99894.20
2023-03-06T03:17:04.797Z,99898.05
2023-03-06T03:19:32.946Z,99887.60
2023-03-06T03:22:01.123Z,99884.60
2023-03-06T03:24:29.446Z,99890.41
2023-03-06T03:26:57.433Z,99896.52
2023-03-06T03:29:25.647Z,99897.98
2023-03-06T03:31:54.912Z,99904.89
2023-03-06T03:34:25.622Z,99906.85
2023-03-06T03:36:55.007Z,99905.34
2023-03-06T03:39:23.188Z,99908.02
2023-03-06T03:41:51.464Z,99911.25
2023-03-06T03:44:20.860Z,99915.57
2023-03-06T03:46:49.489Z,99914.08
2023-03-06T03:49:20.897Z,99913.77
2023-03-06T03:51:49.482Z,99912.73
2023-03-06T03:54:18.212Z,99911.30
2023-03-06T03:56:48.085Z,99916.83
2023-03-06T03:59:21.282Z,99918.55
2023-03-06T04:02:15.918Z,99917.73
2023-03-06T04:04:52.688Z,99917.80
2023-03-06T04:07:22.142Z,99923.55
2023-03-06T04:09:50.668Z,99917.00
2023-03-06T04:12:19.132Z,99926.58
2023-03-06T04:14:47.999Z,99919.77
2023-03-06T04:17:16.795Z,99919.76
2023-03-06T04:19:45.727Z,99922.46
2023-03-06T04:22:13.854Z,99924.90
2023-03-06T04:24:42.129Z,99923.79
2023-03-06T04:27:10.807Z,99924.59
2023-03-06T04:29:39.096Z,99923.48
2023-03-06T04:32:07.701Z,99929.23
2023-03-06T04:34:35.957Z,99931.08
2023-03-06T04:37:04.441Z,99931.70
2023-03-06T04:39:32.725Z,99928.38
2023-03-06T04:42:00.799Z,99939.89
2023-03-06T04:44:29.373Z,99937.80
2023-03-06T04:46:57.549Z,99941.48
2023-03-06T04:49:25.616Z,99943.95
2023-03-06T04:51:53.828Z,99943.39
2023-03-06T04:54:21.765Z,99940.48
2023-03-06T04:56:50.039Z,99940.86
2023-03-06T04:59:18.215Z,99942.41
2023-03-06T05:01:46.195Z,99951.63
2023-03-06T05:04:14.265Z,99953.54
2023-03-06T05:06:42.489Z,99957.17
2023-03-06T05:09:10.704Z,99961.73
2023-03-06T05:11:38.875Z,99961.69
2023-03-06T05:14:06.954Z,99963.76
2023-03-06T05:16:35.378Z,99964.98
2023-03-06T05:19:03.703Z,99963.73
2023-03-06T05:21:31.813Z,99965.82
2023-03-06T05:24:00.078Z,99965.04
2023-03-06T05:26:28.744Z,99963.35
2023-03-06T05:28:57.089Z,99966.27
2023-03-06T05:31:25.474Z,99963.11
2023-03-06T05:33:53.772Z,99962.23
2023-03-06T05:36:21.746Z,99962.38
2023-03-06T05:38:50.519Z,99963.37
2023-03-06T05:41:18.815Z,99963.61
2023-03-06T05:43:47.652Z,99975.30
2023-03-06T05:46:15.657Z,99980.35
2023-03-06T05:48:45.331Z,99989.34
2023-03-06T05:51:14.617Z,99993.65
2023-03-06T05:53:42.667Z,99996.91
2023-03-06T05:56:11.242Z,100005.86
2023-03-06T05:58:39.975Z,100008.45
2023-03-06T06:01:10.104Z,100005.14
2023-03-06T06:03:38.799Z,100004.29
2023-03-06T06:06:07.868Z,100006.10
2023-03-06T06:08:36.007Z,100008.78
2023-03-06T06:11:08.020Z,100009.23
2023-03-06T06:13:36.556Z,100012.70
2023-03-06T06:16:12.169Z,100018.19
2023-03-06T06:18:41.457Z,100026.40
2023-03-06T06:21:10.667Z,100032.59
2023-03-06T06:23:39.258Z,100033.28
2023-03-06T06:26:08.928Z,100039.52
2023-03-06T06:28:37.578Z,100043.55
2023-03-06T06:31:09.690Z,100050.39
2023-03-06T06:33:38.842Z,100052.92
2023-03-06T06:36:14.954Z,100055.54
2023-03-06T06:38:43.433Z,100058.66
2023-03-06T06:41:36.070Z,100064.36
2023-03-06T06:44:00.002Z,100067.60
2023-03-06T06:47:10.794Z,100071.42
2023-03-06T06:49:16.523Z,100070.75
2023-03-06T06:51:45.108Z,100071.10
2023-03-06T06:54:13.118Z,100072.54
2023-03-06T06:56:41.231Z,100067.86
2023-03-06T06:59:16.657Z,100072.63
2023-03-06T07:01:45.582Z,100081.84
2023-03-06T07:04:14.102Z,100083.36
2023-03-06T07:06:42.850Z,100083.64
2023-03-06T07:09:12.250Z,100087.66
2023-03-06T07:11:41.329Z,100092.26
2023-03-06T07:14:09.401Z,100092.14
2023-03-06T07:16:37.469Z,100093.05
2023-03-06T07:19:06.140Z,100095.42
2023-03-06T07:21:34.342Z,100102.38
2023-03-06T07:24:02.389Z,100104.86
2023-03-06T07:26:32.786Z,100108.95
2023-03-06T07:29:03.737Z,100112.80
2023-03-06T07:31:32.018Z,100115.20
2023-03-06T07:34:00.845Z,100117.30
2023-03-06T07:36:29.627Z,100117.64
2023-03-06T07:38:57.726Z,100120.77
2023-03-06T07:41:25.838Z,100125.66
2023-03-06T07:43:53.749Z,100126.92
2023-03-06T07:46:21.797Z,100129.63
2023-03-06T07:48:49.747Z,100130.44
2023-03-06T07:51:19.374Z,100128.97
2023-03-06T07:53:48.101Z,100130.85
2023-03-06T07:56:16.545Z,100132.38
2023-03-06T07:58:45.571Z,100134.02
2023-03-06T08:01:15.347Z,100139.58
2023-03-06T08:03:43.501Z,100137.36
2023-03-06T08:06:12.859Z,100138.30
2023-03-06T08:08:42.214Z,100136.81
2023-03-06T08:11:11.469Z,100134.47
2023-03-06T08:13:39.782Z,100136.48
2023-03-06T08:16:08.087Z,100134.02
2023-03-06T08:18:36.516Z,100137.64
2023-03-06T08:21:06.376Z,100140.18
2023-03-06T08:23:34.935Z,100141.40
2023-03-06T08:26:04.859Z,100150.21
2023-03-06T08:28:33.249Z,100150.16
2023-03-06T08:31:08.377Z,100155.75
2023-03-06T08:33:36.513Z,100161.23
2023-03-06T08:36:04.700Z,100161.83
2023-03-06T08:38:32.671Z,100165.41
2023-03-06T08:41:00.818Z,100163.45
2023-03-06T08:43:29.003Z,100164.31
2023-03-06T08:45:58.341Z,100171.30
2023-03-06T08:48:26.472Z,100176.08
2023-03-06T08:50:54.971Z,100179.77
2023-03-06T08:53:33.452Z,100178.41
2023-03-06T08:56:21.274Z,100176.85
2023-03-06T08:58:50.140Z,100178.88
2023-03-06T09:01:26.123Z,100181.88
2023-03-06T09:03:56.010Z,100176.78
2023-03-06T09:06:26.003Z,100177.52
2023-03-06T09:08:54.895Z,100178.13
2023-03-06T09:11:24.642Z,100176.84
2023-03-06T09:13:53.691Z,100177.98
2023-03-06T09:16:22.040Z,100179.10
2023-03-06T09:18:53.131Z,100182.12
2023-03-06T09:21:21.995Z,100181.42
2023-03-06T09:23:50.080Z,100180.41
2023-03-06T09:26:18.890Z,100181.05
2023-03-06T09:28:47.104Z,100185.60
2023-03-06T09:31:17.416Z,100187.95
2023-03-06T09:33:46.041Z,100189.35
2023-03-06T09:36:16.028Z,100195.95
2023-03-06T09:38:45.963Z,100197.39
2023-03-06T09:41:43.527Z,100196.14
2023-03-06T09:44:16.855Z,100198.53
2023-03-06T09:46:47.414Z,100196.81
2023-03-06T09:49:15.388Z,100197.58
2023-03-06T09:51:49.996Z,100202.08
2023-03-06T09:54:22.530Z,100199.80
2023-03-06T09:56:50.692Z,100200.57
2023-03-06T09:59:23.862Z,100199.91
2023-03-06T10:01:58.767Z,100201.96
2023-03-06T10:04:37.174Z,100203.93
2023-03-06T10:07:25.980Z,100202.89
2023-03-06T10:09:57.137Z,100205.20
2023-03-06T10:12:28.895Z,100206.11
2023-03-06T10:14:59.732Z,100206.77
2023-03-06T10:17:31.346Z,100208.46
2023-03-06T10:19:59.293Z,100210.80
2023-03-06T10:22:30.736Z,100206.92
2023-03-06T10:25:08.358Z,100205.16
2023-03-06T10:27:42.613Z,100201.25
2023-03-06T10:30:30.659Z,100199.70
2023-03-06T10:33:09.028Z,100193.17
2023-03-06T10:35:47.580Z,100192.52
2023-03-06T10:38:18.734Z,100192.88
2023-03-06T10:40:51.358Z,100183.89
2023-03-06T10:43:19.769Z,100183.91
2023-03-06T10:45:49.824Z,100178.61
2023-03-06T10:48:28.111Z,100179.44
2023-03-06T10:51:19.456Z,100175.76
2023-03-06T10:53:50.832Z,100169.65
2023-03-06T10:56:35.857Z,100168.15
2023-03-06T10:59:08.681Z,100164.41
2023-03-06T11:01:37.043Z,100164.59
2023-03-06T11:04:26.482Z,100164.52
2023-03-06T11:07:14.521Z,100160.42
2023-03-06T11:10:02.869Z,100157.90
2023-03-06T11:12:32.502Z,100157.77
2023-03-06T11:15:06.709Z,100152.80
2023-03-06T11:17:36.258Z,100153.48
2023-03-06T11:20:15.528Z,100150.63
2023-03-06T11:22:49.094Z,100149.10
2023-03-06T11:25:19.260Z,100147.77
2023-03-06T11:27:52.863Z,100148.53
2023-03-06T11:30:24.361Z,100140.70
2023-03-06T11:32:57.760Z,100137.74
2023-03-06T11:35:36.062Z,100140.92
2023-03-06T11:38:14.418Z,100134.63
2023-03-06T11:40:54.157Z,100125.58
2023-03-06T11:43:25.509Z,100127.00
2023-03-06T11:46:02.323Z,100122.11
2023-03-06T11:48:42.482Z,100120.99
2023-03-06T11:51:33.889Z,100115.82
2023-03-06T11:54:02.722Z,100117.05
2023-03-06T11:56:48.457Z,100119.55
2023-03-06T11:59:27.234Z,100115.77
2023-03-06T12:02:14.191Z,100112.37
2023-03-06T12:05:01.263Z,100110.33
2023-03-06T12:07:33.067Z,100113.94
2023-03-06T12:10:09.933Z,100113.32
2023-03-06T12:12:47.403Z,100108.46
2023-03-06T12:15:15.468Z,100108.33
2023-03-06T12:18:02.355Z,100104.18
2023-03-06T12:20:33.305Z,100104.71
2023-03-06T12:23:21.694Z,100106.60
2023-03-06T12:25:54.352Z,100106.16
2023-03-06T12:28:25.412Z,100106.73
2023-03-06T12:31:12.444Z,100104.04
2023-03-06T12:34:03.785Z,100102.06
2023-03-06T12:36:31.887Z,100096.06
2023-03-06T12:39:17.652Z,100092.06
2023-03-06T12:42:11.304Z,100086.76
2023-03-06T12:44:42.542Z,100085.27
2023-03-06T12:47:11.858Z,100092.00
2023-03-06T12:49:42.491Z,100090.29
2023-03-06T12:52:21.610Z,100093.99
2023-03-06T12:54:53.843Z,100092.48
2023-03-06T12:57:24.142Z,100094.56
2023-03-06T12:59:52.864Z,100090.80
2023-03-06T13:02:39.460Z,100089.38
2023-03-06T13:05:27.430Z,100083.69
2023-03-06T13:08:14.376Z,100085.39
2023-03-06T13:10:43.676Z,100078.79
2023-03-06T13:13:30.807Z,100078.61
2023-03-06T13:16:11.240Z,100077.55
2023-03-06T13:18:42.106Z,100080.19
2023-03-06T13:21:30.006Z,100081.27
2023-03-06T13:24:04.944Z,100076.36
2023-03-06T13:26:32.978Z,100078.14
2023-03-06T13:29:01.846Z,100071.95
2023-03-06T13:31:32.855Z,100071.08
2023-03-06T13:34:02.531Z,100068.39
2023-03-06T13:36:31.741Z,100065.88
2023-03-06T13:39:01.251Z,100068.29
2023-03-06T13:41:32.210Z,100066.77
2023-03-06T13:44:01.938Z,100060.85
2023-03-06T13:46:37.302Z,100058.45
2023-03-06T13:49:08.365Z,100056.67
2023-03-06T13:51:41.923Z,100050.29
2023-03-06T13:54:09.852Z,100045.81
2023-03-06T13:56:56.605Z,100045.98
2023-03-06T13:59:24.570Z,100045.00
2023-03-06T14:01:58.827Z,100044.60
2023-03-06T14:04:35.991Z,100037.09
2023-03-06T14:07:07.089Z,100037.23
2023-03-06T14:09:37.308Z,100032.52
2023-03-06T14:12:07.288Z,100032.55
2023-03-06T14:14:40.427Z,100035.10
2023-03-06T14:17:15.421Z,100037.95
2023-03-06T14:19:43.455Z,100038.55
2023-03-06T14:22:19.228Z,100037.63
2023-03-06T14:24:56.516Z,100036.23
2023-03-06T14:27:42.696Z,100030.17
2023-03-06T14:30:15.457Z,100031.92
2023-03-06T14:32:44.105Z,100028.23
2023-03-06T14:35:20.471Z,100025.35
2023-03-06T14:37:53.278Z,100023.97
2023-03-06T14:40:24.837Z,100024.79
2023-03-06T14:43:09.494Z,100028.73
2023-03-06T14:45:37.491Z,100029.88
2023-03-06T14:48:06.320Z,100029.91
2023-03-06T14:50:35.566Z,100031.46
2023-03-06T14:53:06.920Z,100027.56
2023-03-06T14:55:35.804Z,100028.52
2023-03-06T14:58:03.978Z,100027.04
2023-03-06T15:00:35.835Z,100030.20
2023-03-06T15:03:06.288Z,100024.19
2023-03-06T15:05:34.645Z,100028.05
2023-03-06T15:08:05.418Z,100025.80
2023-03-06T15:10:34.515Z,100025.63
2023-03-06T15:13:20.469Z,100022.29
2023-03-06T15:15:55.653Z,100023.91
2023-03-06T15:18:32.958Z,100024.42
2023-03-06T15:21:07.904Z,100023.14
2023-03-06T15:23:37.904Z,100022.63
2023-03-06T15:26:24.863Z,100020.48
2023-03-06T15:29:11.545Z,100011.67
2023-03-06T15:31:41.389Z,100009.56
2023-03-06T15:34:09.346Z,100014.17
2023-03-06T15:36:40.122Z,100016.02
2023-03-06T15:39:27.853Z,100018.86
2023-03-06T15:42:16.273Z,100023.06
2023-03-06T15:44:47.938Z,100019.93
2023-03-06T15:47:16.504Z,100018.92
2023-03-06T15:49:44.472Z,100017.30
2023-03-06T15:52:15.006Z,100016.34
2023-03-06T15:54:43.083Z,100018.20
2023-03-06T15:57:18.486Z,100016.45
2023-03-06T15:59:46.702Z,100019.86
2023-03-06T16:02:16.818Z,100016.13
2023-03-06T16:04:45.504Z,100018.10
2023-03-06T16:07:14.906Z,100023.51
2023-03-06T16:09:43.707Z,100024.31
2023-03-06T16:12:19.564Z,100026.27
2023-03-06T16:14:48.578Z,100024.20
2023-03-06T16:17:16.955Z,100021.92
2023-03-06T16:19:45.403Z,100022.36
2023-03-06T16:22:13.888Z,100025.30
2023-03-06T16:24:43.528Z,100029.46
2023-03-06T16:27:16.786Z,100031.70
2023-03-06T16:29:44.770Z,100032.11
2023-03-06T16:32:12.955Z,100036.33
2023-03-06T16:34:41.167Z,100036.27
2023-03-06T16:37:11.440Z,100035.08
2023-03-06T16:39:39.516Z,100038.46
2023-03-06T16:42:07.570Z,100036.61
2023-03-06T16:44:35.743Z,100035.71
2023-03-06T16:47:04.126Z,100041.09
2023-03-06T16:49:32.264Z,100040.30
2023-03-06T16:52:00.778Z,100040.14
2023-03-06T16:54:28.717Z,100046.46
2023-03-06T16:56:56.790Z,100046.54
2023-03-06T16:59:25.433Z,100043.41
2023-03-06T17:01:53.360Z,100040.79
2023-03-06T17:04:21.468Z,100040.61
2023-03-06T17:06:49.722Z,100045.27
2023-03-06T17:09:17.908Z,100044.91
2023-03-06T17:11:47.038Z,100040.05
2023-03-06T17:14:15.237Z,100039.08
2023-03-06T17:16:43.157Z,100039.26
2023-03-06T17:19:14.450Z,100039.98
2023-03-06T17:21:43.676Z,100035.42
2023-03-06T17:24:11.997Z,100039.52
2023-03-06T17:26:40.387Z,100037.09
2023-03-06T17:29:09.753Z,100042.34
2023-03-06T17:31:38.083Z,100049.14
2023-03-06T17:34:06.560Z,100051.70
2023-03-06T17:36:34.770Z,100051.90
2023-03-06T17:39:03.202Z,100050.00
2023-03-06T17:41:32.982Z,100053.77
2023-03-06T17:44:01.929Z,100051.50
2023-03-06T17:46:32.345Z,100054.46
2023-03-06T17:49:00.733Z,100058.23
2023-03-06T17:51:28.851Z,100058.93
2023-03-06T17:53:57.576Z,100052.89
2023-03-06T17:56:26.288Z,100054.89
2023-03-06T17:58:54.557Z,100053.06
2023-03-06T18:01:27.568Z,100053.61
2023-03-06T18:03:55.867Z,100053.98
2023-03-06T18:06:25.209Z,100055.56
2023-03-06T18:08:54.567Z,100053.48
2023-03-06T18:11:23.184Z,100054.48
2023-03-06T18:13:51.434Z,100055.71
2023-03-06T18:16:21.378Z,100059.24
2023-03-06T18:18:53.852Z,100059.60
2023-03-06T18:21:22.834Z,100058.55
2023-03-06T18:23:51.194Z,100061.19
2023-03-06T18:26:21.274Z,100056.83
2023-03-06T18:28:54.057Z,100052.23
2023-03-06T18:31:27.864Z,100054.58
2023-03-06T18:33:57.160Z,100054.71
2023-03-06T18:36:26.610Z,100057.06
2023-03-06T18:38:55.952Z,100054.66
2023-03-06T18:41:24.228Z,100056.59
2023-03-06T18:43:53.194Z,100052.05
2023-03-06T18:46:21.596Z,100052.97
2023-03-06T18:48:49.689Z,100057.02
2023-03-06T18:51:19.488Z,100054.91
2023-03-06T18:53:47.971Z,100055.61
2023-03-06T18:56:18.284Z,100052.88
2023-03-06T18:58:46.766Z,100049.83
2023-03-06T19:01:17.743Z,100045.40
2023-03-06T19:03:46.303Z,100049.02
2023-03-06T19:06:17.251Z,100055.66
2023-03-06T19:08:45.986Z,100051.56
2023-03-06T19:11:15.423Z,100044.56
2023-03-06T19:13:44.010Z,100043.65
2023-03-06T19:16:19.738Z,100041.08
2023-03-06T19:18:47.941Z,100038.48
2023-03-06T19:21:17.710Z,100037.48
2023-03-06T19:23:46.188Z,100037.89
2023-03-06T19:26:15.418Z,100036.57
2023-03-06T19:28:43.991Z,100040.00
2023-03-06T19:31:13.989Z,100040.95
2023-03-06T19:33:42.966Z,100037.61
2023-03-06T19:36:13.196Z,100037.39
2023-03-06T19:38:42.071Z,100041.50
2023-03-06T19:41:13.924Z,100041.33
2023-03-06T19:43:42.689Z,100038.23
2023-03-06T19:46:12.243Z,100039.30
2023-03-06T19:48:41.374Z,100037.15
2023-03-06T19:51:10.537Z,100036.08
2023-03-06T19:53:40.356Z,100037.73
2023-03-06T19:56:13.345Z,100032.17
2023-03-06T19:58:41.624Z,100029.90
2023-03-06T20:01:11.533Z,100038.64
2023-03-06T20:03:39.907Z,100033.05
2023-03-06T20:06:12.034Z,100032.70
2023-03-06T20:08:40.069Z,100024.29
2023-03-06T20:11:14.823Z,100017.20
2023-03-06T20:13:47.522Z,100014.17
2023-03-06T20:16:16.760Z,100013.88
2023-03-06T20:18:45.643Z,100015.83
2023-03-06T20:21:14.229Z,100019.41
2023-03-06T20:23:42.729Z,100016.80
2023-03-06T20:26:12.558Z,100023.76
2023-03-06T20:28:41.618Z,100012.23
2023-03-06T20:31:11.375Z,100010.66
2023-03-06T20:33:39.811Z,100010.57
2023-03-06T20:36:15.478Z,100007.84
2023-03-06T20:38:44.049Z,100003.61
2023-03-06T20:41:19.485Z,100004.48
2023-03-06T20:43:47.572Z,100005.44
2023-03-06T20:46:16.070Z,100010.05
2023-03-06T20:48:44.855Z,100013.98
2023-03-06T20:51:20.792Z,100016.36
2023-03-06T20:53:50.066Z,100019.44
2023-03-06T20:56:20.008Z,100011.86
2023-03-06T20:58:48.180Z,100011.04
2023-03-06T21:01:42.531Z,100010.05
2023-03-06T21:04:13.754Z,100011.54
2023-03-06T21:06:45.477Z,100010.54
2023-03-06T21:09:15.935Z,100002.13
2023-03-06T21:11:44.481Z,99999.19
2023-03-06T21:14:14.470Z,99999.60
2023-03-06T21:16:43.005Z,100003.54
2023-03-06T21:19:11.173Z,100005.10
2023-03-06T21:21:39.232Z,100007.13
2023-03-06T21:24:07.707Z,100007.62
2023-03-06T21:26:36.000Z,100008.52
2023-03-06T21:29:04.141Z,100010.87
2023-03-06T21:31:33.586Z,100017.13
2023-03-06T21:34:04.481Z,100018.65
2023-03-06T21:36:33.516Z,100010.63
2023-03-06T21:39:01.688Z,100009.13
2023-03-06T21:41:32.456Z,100012.43
2023-03-06T21:44:02.124Z,100011.05
2023-03-06T21:46:30.911Z,100007.17
2023-03-06T21:48:58.990Z,100008.33
2023-03-06T21:51:27.458Z,100007.02
2023-03-06T21:53:55.951Z,100003.33
2023-03-06T21:56:25.573Z,99997.13
2023-03-06T21:58:54.130Z,99999.43
2023-03-06T22:01:24.311Z,99996.80
2023-03-06T22:03:52.677Z,99993.59
2023-03-06T22:06:22.444Z,99983.73
2023-03-06T22:08:50.720Z,99978.63
2023-03-06T22:11:19.882Z,99987.39
2023-03-06T22:13:50.962Z,99985.81
2023-03-06T22:16:21.022Z,99975.39
2023-03-06T22:18:50.073Z,99983.95
2023-03-06T22:21:19.810Z,99993.53
2023-03-06T22:23:52.265Z,99992.48
2023-03-06T22:26:20.943Z,99990.48
2023-03-06T22:28:49.440Z,99992.94
2023-03-06T22:31:19.074Z,99982.85
2023-03-06T22:33:50.182Z,99969.28
2023-03-06T22:36:18.384Z,99970.18
2023-03-06T22:38:47.241Z,99968.53
2023-03-06T22:41:17.376Z,99966.41
2023-03-06T22:43:45.429Z,99962.75
2023-03-06T22:46:15.002Z,99961.72
2023-03-06T22:48:43.966Z,99957.35
2023-03-06T22:51:13.446Z,99959.81
2023-03-06T22:53:42.357Z,99958.02
2023-03-06T22:56:11.611Z,99953.83
2023-03-06T22:58:40.432Z,99959.10
2023-03-06T23:01:09.997Z,99954.73
2023-03-06T23:03:38.913Z,99951.15
2023-03-06T23:06:11.702Z,99945.05
2023-03-06T23:08:40.589Z,99938.45
2023-03-06T23:11:10.095Z,99938.08
2023-03-06T23:13:57.623Z,99945.46
2023-03-06T23:16:44.963Z,99940.30
2023-03-06T23:19:32.272Z,99939.17
2023-03-06T23:22:19.799Z,99936.64
2023-03-06T23:25:07.536Z,99935.50
2023-03-06T23:27:36.138Z,99934.73
2023-03-06T23:30:09.141Z,99930.00
2023-03-06T23:32:37.249Z,99931.49
2023-03-06T23:35:05.560Z,99930.06
2023-03-06T23:37:33.629Z,99935.95
2023-03-06T23:40:01.909Z,99932.83
2023-03-06T23:42:29.976Z,99934.12
2023-03-06T23:44:58.357Z,99935.16
2023-03-06T23:47:26.428Z,99931.85
2023-03-06T23:49:54.618Z,99924.83
2023-03-06T23:52:23.394Z,99917.05
2023-03-06T23:54:51.464Z,99910.92
2023-03-06T23:57:19.739Z,99909.32
2023-03-06T23:59:48.028Z,99899.99
